Time;durP1;ratioP1;P1;durP2;ratioP2;P2;SDS_P1;SDS_P2;PMS_P1;PMS_P2;Temp;Humidity;BMP_temperature;BMP_pressure;BME280_temperature;BME280_humidity;BME280_pressure;Samples;Min_cycle;Max_cycle;Signal;HPM_P1;HPM_P2
2022/01/06 00:00:11;;;;;;;1.97;1.03;;;4.10;99.90;;;;;;5075760;28;20424;-77
2022/01/06 00:02:38;;;;;;;1.63;1.38;;;4.20;99.90;;;;;;5075993;28;20078;-78
2022/01/06 00:05:07;;;;;;;6.23;1.53;;;4.10;99.90;;;;;;5074860;28;20048;-79
2022/01/06 00:07:34;;;;;;;4.07;1.17;;;4.10;99.90;;;;;;5076069;28;20652;-78
2022/01/06 00:10:01;;;;;;;8.70;1.63;;;4.10;99.90;;;;;;5075477;28;20048;-78
2022/01/06 00:12:35;;;;;;;5.20;1.30;;;4.10;99.90;;;;;;5075341;28;20489;-77
2022/01/06 00:15:08;;;;;;;5.87;1.50;;;4.10;99.90;;;;;;5073711;28;20564;-77
2022/01/06 00:17:46;;;;;;;4.13;1.10;;;4.00;99.90;;;;;;5076660;28;20299;-78
2022/01/06 00:25:44;;;;;;;5.60;0.80;;;4.00;99.90;;;;;;5068436;28;20044;-80
2022/01/06 00:28:12;;;;;;;2.13;1.27;;;4.00;99.90;;;;;;5076128;28;20056;-80
2022/01/06 00:30:39;;;;;;;3.30;1.17;;;4.00;99.90;;;;;;5076128;28;20048;-80
2022/01/06 00:33:05;;;;;;;1.10;1.10;;;4.00;99.90;;;;;;5076633;28;20052;-80
2022/01/06 00:35:33;;;;;;;5.53;1.47;;;4.00;99.90;;;;;;5077152;28;20464;-79
2022/01/06 00:38:00;;;;;;;4.17;1.50;;;4.00;99.90;;;;;;5075416;28;20045;-79
2022/01/06 00:40:27;;;;;;;3.57;1.10;;;4.00;99.90;;;;;;5075095;28;20478;-81
2022/01/06 00:42:54;;;;;;;1.00;0.97;;;4.00;99.90;;;;;;5075444;28;20048;-79
2022/01/06 00:45:21;;;;;;;1.30;0.90;;;4.00;99.90;;;;;;5074979;28;20053;-79
2022/01/06 00:47:48;;;;;;;2.53;1.10;;;3.90;99.90;;;;;;5075154;28;20040;-82
2022/01/06 00:50:15;;;;;;;1.30;0.80;;;4.00;99.90;;;;;;5076254;28;20040;-78
2022/01/06 00:52:43;;;;;;;0.77;0.70;;;4.00;99.90;;;;;;5075724;28;20044;-80
2022/01/06 00:55:10;;;;;;;4.63;1.03;;;4.00;99.90;;;;;;5074731;28;20044;-80
2022/01/06 00:57:36;;;;;;;2.13;1.10;;;4.00;99.90;;;;;;5075279;28;20101;-81
2022/01/06 01:00:05;;;;;;;4.17;1.13;;;4.00;99.90;;;;;;5075017;28;20489;-80
2022/01/06 01:02:32;;;;;;;1.20;1.10;;;3.80;99.90;;;;;;5074812;28;20052;-79
2022/01/06 01:04:59;;;;;;;1.93;1.30;;;3.50;99.90;;;;;;5073191;28;20056;-77
2022/01/06 01:07:25;;;;;;;1.10;1.10;;;3.40;99.90;;;;;;5074604;28;20044;-77
2022/01/06 01:09:53;;;;;;;2.67;1.37;;;3.40;99.90;;;;;;5074735;28;20053;-76
2022/01/06 01:12:23;;;;;;;3.27;1.13;;;3.30;99.90;;;;;;5074903;28;20489;-77
2022/01/06 01:14:56;;;;;;;4.40;1.07;;;3.30;99.90;;;;;;5073806;28;20072;-78
2022/01/06 01:17:25;;;;;;;4.70;1.07;;;3.30;99.90;;;;;;5075116;28;20467;-78
2022/01/06 01:19:52;;;;;;;3.33;1.27;;;3.30;99.90;;;;;;5075660;28;20045;-79
2022/01/06 01:22:19;;;;;;;7.37;1.20;;;3.30;99.90;;;;;;5074488;28;20044;-79
2022/01/06 01:24:45;;;;;;;2.63;1.30;;;3.20;99.90;;;;;;5073187;28;20053;-78
2022/01/06 01:27:15;;;;;;;0.83;0.83;;;3.20;99.90;;;;;;5073133;28;20049;-78
2022/01/06 01:29:55;;;;;;;3.17;0.97;;;3.10;99.90;;;;;;5074285;28;20049;-79
2022/01/06 01:32:28;;;;;;;2.73;1.00;;;3.10;99.90;;;;;;5073851;28;20055;-78
2022/01/06 01:34:59;;;;;;;0.50;0.50;;;3.10;99.90;;;;;;5075168;28;20052;-77
2022/01/06 01:37:26;;;;;;;0.60;0.60;;;2.90;99.90;;;;;;5077463;28;20045;-78
2022/01/06 01:39:53;;;;;;;0.40;0.40;;;2.80;99.90;;;;;;5077469;28;20150;-78
2022/01/06 01:42:21;;;;;;;0.90;0.83;;;2.70;99.90;;;;;;5077774;28;20692;-77
2022/01/06 01:44:49;;;;;;;0.87;0.87;;;2.60;99.90;;;;;;5078249;28;20079;-79
2022/01/06 01:47:16;;;;;;;1.80;1.03;;;2.50;99.90;;;;;;5075732;28;20134;-79
2022/01/06 01:49:51;;;;;;;0.83;0.83;;;2.40;99.90;;;;;;5075857;28;20056;-79
2022/01/06 01:52:18;;;;;;;0.80;0.80;;;2.30;99.90;;;;;;5075605;28;20427;-78
2022/01/06 01:54:45;;;;;;;1.17;0.73;;;2.20;99.90;;;;;;5076372;28;20082;-78
2022/01/06 01:57:11;;;;;;;2.13;1.00;;;2.10;99.90;;;;;;5075819;28;20045;-79
2022/01/06 01:59:44;;;;;;;0.50;0.50;;;2.10;99.90;;;;;;5074366;28;20045;-80
2022/01/06 02:02:10;;;;;;;1.03;0.83;;;1.90;99.90;;;;;;5075700;28;20131;-79
2022/01/06 02:04:37;;;;;;;0.60;0.60;;;1.90;99.90;;;;;;5075338;28;20393;-79
2022/01/06 02:07:04;;;;;;;0.87;0.60;;;1.90;99.90;;;;;;5075126;28;20523;-83
2022/01/06 02:09:30;;;;;;;3.93;1.10;;;2.00;99.90;;;;;;5074714;28;20135;-80
2022/01/06 02:11:57;;;;;;;4.87;1.47;;;2.00;99.90;;;;;;5074728;28;20412;-80
2022/01/06 02:14:26;;;;;;;0.93;0.93;;;2.10;99.90;;;;;;5073863;28;20057;-78
2022/01/06 02:16:57;;;;;;;0.80;0.80;;;2.10;99.90;;;;;;5073828;28;20076;-78
2022/01/06 02:19:23;;;;;;;4.67;0.70;;;2.10;99.90;;;;;;5076179;28;20045;-78
2022/01/06 02:21:51;;;;;;;1.10;0.77;;;2.10;99.90;;;;;;5077672;28;20127;-79
2022/01/06 02:24:18;;;;;;;0.80;0.80;;;2.20;99.90;;;;;;5075884;28;20882;-79
2022/01/06 02:26:44;;;;;;;1.33;1.23;;;2.20;99.90;;;;;;5076805;28;20045;-80
2022/01/06 02:29:11;;;;;;;9.23;1.03;;;2.20;99.90;;;;;;5077294;28;20044;-79
2022/01/06 02:31:43;;;;;;;0.50;0.50;;;2.20;99.90;;;;;;5077545;28;20052;-78
2022/01/06 02:34:10;;;;;;;1.37;1.00;;;2.20;99.90;;;;;;5077969;28;20493;-77
2022/01/06 02:36:36;;;;;;;0.60;0.60;;;2.30;99.90;;;;;;5077055;28;20045;-78
2022/01/06 02:39:05;;;;;;;1.20;1.10;;;2.20;99.90;;;;;;5077247;28;20394;-77
2022/01/06 02:41:32;;;;;;;3.90;1.00;;;2.20;99.90;;;;;;5078395;28;20511;-78
2022/01/06 02:44:08;;;;;;;7.23;1.10;;;2.20;99.90;;;;;;5076395;28;20049;-77
2022/01/06 02:46:39;;;;;;;1.60;1.00;;;2.20;99.90;;;;;;5080715;28;20492;-79
2022/01/06 02:49:12;;;;;;;1.92;0.80;;;2.30;99.90;;;;;;5080704;28;20044;-78
2022/01/06 02:51:40;;;;;;;1.50;1.33;;;2.30;99.90;;;;;;5078813;28;20048;-78
2022/01/06 02:54:08;;;;;;;0.60;0.60;;;2.30;99.90;;;;;;5077631;28;20044;-77
2022/01/06 02:56:34;;;;;;;0.60;0.60;;;2.30;99.90;;;;;;5077166;28;20109;-78
2022/01/06 02:59:01;;;;;;;3.27;1.37;;;2.30;99.90;;;;;;5078299;28;20416;-78
2022/01/06 03:01:28;;;;;;;2.30;1.13;;;2.30;99.90;;;;;;5079497;28;20395;-79
2022/01/06 03:03:54;;;;;;;0.50;0.50;;;2.30;99.90;;;;;;5080442;28;20122;-78
2022/01/06 03:06:21;;;;;;;0.97;0.90;;;2.30;99.90;;;;;;5080098;28;20045;-78
2022/01/06 03:08:47;;;;;;;0.67;0.67;;;2.30;99.90;;;;;;5079982;28;20045;-79
2022/01/06 03:11:15;;;;;;;0.73;0.70;;;2.30;99.90;;;;;;5079893;28;20044;-80
2022/01/06 03:13:42;;;;;;;2.60;0.57;;;2.20;99.90;;;;;;5078085;28;20045;-79
2022/01/06 03:16:09;;;;;;;1.77;0.87;;;2.20;99.90;;;;;;5077216;28;20048;-78
2022/01/06 03:18:35;;;;;;;0.83;0.83;;;2.20;99.90;;;;;;5082129;28;20067;-80
2022/01/06 03:21:02;;;;;;;0.67;0.67;;;2.10;99.90;;;;;;5076979;28;20070;-78
2022/01/06 03:23:29;;;;;;;0.60;0.60;;;2.20;99.90;;;;;;5077450;28;20041;-80
2022/01/06 03:25:55;;;;;;;4.77;1.50;;;2.10;99.90;;;;;;5076212;28;20048;-78
2022/01/06 03:28:23;;;;;;;0.50;0.50;;;2.10;99.90;;;;;;5075991;28;20106;-78
2022/01/06 03:30:50;;;;;;;0.60;0.60;;;2.00;99.90;;;;;;5076512;28;20075;-79
2022/01/06 03:33:16;;;;;;;0.50;0.50;;;2.00;99.90;;;;;;5075787;28;20115;-78
2022/01/06 03:35:43;;;;;;;1.70;0.83;;;1.90;99.90;;;;;;5075519;28;20040;-78
2022/01/06 03:38:10;;;;;;;0.53;0.53;;;1.80;99.90;;;;;;5076234;28;20066;-78
2022/01/06 03:40:39;;;;;;;2.17;0.67;;;1.80;99.90;;;;;;5075963;28;20110;-80
2022/01/06 03:43:06;;;;;;;1.33;0.87;;;1.80;99.90;;;;;;5076530;28;20053;-78
2022/01/06 03:45:34;;;;;;;0.63;0.63;;;1.80;99.90;;;;;;5076113;28;20075;-78
2022/01/06 03:48:01;;;;;;;0.43;0.40;;;1.70;99.90;;;;;;5076966;28;20123;-79
2022/01/06 03:50:27;;;;;;;7.87;0.87;;;1.70;99.90;;;;;;5077021;28;20048;-78
2022/01/06 03:52:54;;;;;;;2.10;0.73;;;1.70;99.90;;;;;;5076348;28;20056;-78
2022/01/06 03:55:21;;;;;;;3.50;1.10;;;1.60;99.90;;;;;;5074447;28;20048;-77
2022/01/06 03:57:48;;;;;;;0.67;0.67;;;1.50;99.90;;;;;;5075967;28;20488;-77
2022/01/06 04:00:18;;;;;;;0.70;0.70;;;1.60;99.90;;;;;;5076242;28;20041;-78
2022/01/06 04:02:47;;;;;;;0.30;0.30;;;1.50;99.90;;;;;;5075595;28;20045;-78
2022/01/06 04:05:15;;;;;;;0.70;0.70;;;1.50;99.90;;;;;;5075184;28;20052;-80
2022/01/06 04:07:42;;;;;;;3.57;0.97;;;1.50;99.90;;;;;;5076034;28;20049;-77
2022/01/06 04:10:10;;;;;;;0.93;0.90;;;1.40;99.90;;;;;;5075916;28;20048;-77
2022/01/06 04:12:38;;;;;;;0.83;0.80;;;1.30;99.90;;;;;;5075983;28;20067;-78
2022/01/06 04:15:09;;;;;;;0.17;0.17;;;1.30;99.90;;;;;;5075981;28;20139;-78
2022/01/06 04:17:36;;;;;;;2.67;1.27;;;1.20;99.90;;;;;;5076134;28;20055;-80
2022/01/06 04:20:07;;;;;;;0.63;0.63;;;1.10;99.90;;;;;;5076206;28;20053;-79
2022/01/06 04:22:33;;;;;;;0.10;0.10;;;1.00;99.90;;;;;;5075362;28;20048;-78
2022/01/06 04:25:05;;;;;;;1.30;0.60;;;1.00;99.90;;;;;;5075062;28;20052;-76
2022/01/06 04:27:31;;;;;;;1.20;0.60;;;0.90;99.90;;;;;;5074960;28;20045;-78
2022/01/06 04:29:58;;;;;;;0.63;0.63;;;0.80;99.90;;;;;;5075637;28;20067;-77
2022/01/06 04:32:24;;;;;;;1.50;0.40;;;0.80;99.90;;;;;;5076548;28;20381;-79
2022/01/06 04:34:51;;;;;;;0.57;0.40;;;0.70;99.90;;;;;;5075284;28;20044;-77
2022/01/06 04:37:19;;;;;;;0.53;0.53;;;0.60;99.90;;;;;;5074242;28;20479;-77
2022/01/06 04:39:46;;;;;;;0.67;0.50;;;0.60;99.90;;;;;;5078108;28;20523;-77
2022/01/06 04:42:13;;;;;;;1.20;0.73;;;0.60;99.90;;;;;;5076746;28;20052;-85
2022/01/06 04:44:39;;;;;;;3.43;0.67;;;0.50;99.90;;;;;;5077606;28;20047;-83
2022/01/06 04:47:06;;;;;;;0.40;0.30;;;0.50;99.90;;;;;;5076455;28;20045;-82
2022/01/06 04:49:33;;;;;;;2.00;0.73;;;0.40;99.90;;;;;;5077886;28;20485;-82
2022/01/06 04:52:01;;;;;;;2.63;1.53;;;0.40;99.90;;;;;;5077227;28;20074;-82
2022/01/06 04:54:29;;;;;;;2.07;0.67;;;0.30;99.90;;;;;;5076190;28;20488;-82
2022/01/06 04:56:55;;;;;;;0.93;0.80;;;0.30;99.90;;;;;;5075888;28;20447;-80
2022/01/06 04:59:22;;;;;;;0.10;0.10;;;0.30;99.90;;;;;;5074955;28;20066;-80
2022/01/06 05:01:48;;;;;;;8.50;0.40;;;0.20;99.90;;;;;;5075166;28;20048;-81
2022/01/06 05:04:15;;;;;;;0.87;0.43;;;0.20;99.90;;;;;;5075150;28;20052;-80
2022/01/06 05:06:42;;;;;;;0.17;0.10;;;0.20;99.90;;;;;;5074603;28;20044;-80
2022/01/06 05:09:09;;;;;;;0.47;0.47;;;0.10;99.90;;;;;;5075017;28;20484;-81
2022/01/06 05:11:37;;;;;;;1.60;0.70;;;0.10;99.90;;;;;;5076376;28;20044;-82
2022/01/06 05:14:04;;;;;;;3.80;0.30;;;0.10;99.90;;;;;;5074249;28;20044;-80
2022/01/06 05:16:30;;;;;;;0.50;0.50;;;0.10;99.90;;;;;;5072488;28;20048;-77
2022/01/06 05:18:57;;;;;;;0.53;0.30;;;0.00;99.90;;;;;;5076179;28;20063;-80
2022/01/06 05:21:28;;;;;;;2.93;0.30;;;0.00;99.90;;;;;;5077350;28;20048;-81
2022/01/06 05:23:55;;;;;;;1.05;0.85;;;0.00;99.90;;;;;;5076963;28;20044;-83
2022/01/06 05:26:22;;;;;;;0.33;0.33;;;-0.10;99.90;;;;;;5076393;28;20057;-84
2022/01/06 05:28:50;;;;;;;1.60;0.40;;;-0.10;99.90;;;;;;5077353;28;20126;-81
2022/01/06 05:31:17;;;;;;;0.17;0.17;;;-0.10;99.90;;;;;;5076361;28;20056;-82
2022/01/06 05:33:45;;;;;;;0.50;0.50;;;-0.10;99.90;;;;;;5077420;28;20051;-82
2022/01/06 05:36:11;;;;;;;0.77;0.43;;;-0.20;99.90;;;;;;5075282;28;20055;-76
2022/01/06 05:38:38;;;;;;;3.87;0.90;;;-0.30;99.90;;;;;;5075303;28;20048;-75
2022/01/06 05:41:04;;;;;;;0.67;0.60;;;-0.30;99.90;;;;;;5078919;28;20045;-81
2022/01/06 05:43:32;;;;;;;4.30;1.37;;;-0.40;99.90;;;;;;5085105;28;20070;-78
2022/01/06 05:46:00;;;;;;;0.57;0.57;;;-0.40;99.90;;;;;;5095414;28;20061;-78
2022/01/06 05:48:27;;;;;;;0.50;0.30;;;-0.40;99.90;;;;;;5096485;28;20075;-77
2022/01/06 05:50:53;;;;;;;0.40;0.40;;;-0.40;99.90;;;;;;5096326;28;20037;-80
2022/01/06 05:53:21;;;;;;;0.40;0.37;;;-0.50;99.90;;;;;;5093868;28;20066;-79
2022/01/06 05:55:48;;;;;;;1.03;0.87;;;-0.70;99.90;;;;;;5078569;28;20049;-78
2022/01/06 05:58:14;;;;;;;3.03;0.80;;;-0.70;99.90;;;;;;5073205;28;20067;-76
2022/01/06 06:00:41;;;;;;;0.97;0.87;;;-0.70;99.90;;;;;;5074549;28;20053;-78
2022/01/06 06:03:09;;;;;;;0.97;0.97;;;-0.70;99.90;;;;;;5074061;28;20045;-78
2022/01/06 06:05:36;;;;;;;0.33;0.33;;;-0.80;99.90;;;;;;5076788;28;20098;-78
2022/01/06 06:08:02;;;;;;;6.60;1.23;;;-0.80;99.90;;;;;;5074847;28;20048;-78
2022/01/06 06:10:29;;;;;;;8.20;0.70;;;-0.90;99.90;;;;;;5073746;28;20048;-77
2022/01/06 06:12:56;;;;;;;4.17;0.90;;;-0.90;99.90;;;;;;5076637;28;20182;-77
2022/01/06 06:15:23;;;;;;;0.30;0.30;;;-0.90;99.90;;;;;;5073618;28;20049;-76
2022/01/06 06:17:49;;;;;;;0.40;0.23;;;-0.90;99.90;;;;;;5073168;28;20060;-77
2022/01/06 06:20:17;;;;;;;0.97;0.50;;;-0.90;99.90;;;;;;5078027;28;20048;-82
2022/01/06 06:22:44;;;;;;;0.30;0.30;;;-0.90;99.90;;;;;;5085028;28;20098;-77
2022/01/06 06:25:11;;;;;;;3.63;1.27;;;-0.90;99.90;;;;;;5078284;28;20052;-79
2022/01/06 06:27:38;;;;;;;3.60;0.67;;;-0.90;99.90;;;;;;5077430;28;20362;-78
2022/01/06 06:30:06;;;;;;;0.40;0.37;;;-1.00;99.90;;;;;;5078817;28;20045;-77
2022/01/06 06:32:35;;;;;;;5.03;1.33;;;-1.00;99.90;;;;;;5082386;28;20044;-80
2022/01/06 06:35:02;;;;;;;0.33;0.33;;;-0.90;99.90;;;;;;5085207;28;20041;-82
2022/01/06 06:37:30;;;;;;;1.50;0.53;;;-0.90;99.90;;;;;;5080268;28;20041;-76
2022/01/06 06:39:57;;;;;;;0.67;0.33;;;-0.90;99.90;;;;;;5080770;28;20098;-78
2022/01/06 06:42:23;;;;;;;0.30;0.30;;;-1.00;99.90;;;;;;5085248;28;20559;-78
2022/01/06 06:44:51;;;;;;;0.70;0.20;;;-1.00;99.90;;;;;;5087596;28;20047;-78
2022/01/06 06:47:19;;;;;;;0.57;0.57;;;-0.90;99.90;;;;;;5080761;28;20045;-77
2022/01/06 06:49:45;;;;;;;0.40;0.40;;;-0.80;99.90;;;;;;5076917;28;20056;-78
2022/01/06 06:52:13;;;;;;;0.97;0.50;;;-0.70;99.90;;;;;;5079253;28;20103;-81
2022/01/06 06:54:42;;;;;;;2.30;1.20;;;-0.70;99.90;;;;;;5080113;28;20049;-81
2022/01/06 06:57:09;;;;;;;1.43;1.27;;;-0.70;99.90;;;;;;5080328;28;20055;-80
2022/01/06 06:59:36;;;;;;;0.37;0.30;;;-0.50;99.90;;;;;;5078896;28;20076;-77
2022/01/06 07:02:03;;;;;;;1.20;1.10;;;-0.50;99.90;;;;;;5079777;28;20083;-77
2022/01/06 07:04:29;;;;;;;0.30;0.30;;;-0.40;99.90;;;;;;5083546;28;20063;-80
2022/01/06 07:06:59;;;;;;;4.33;1.13;;;-0.40;99.90;;;;;;5082878;28;20056;-79
2022/01/06 07:09:26;;;;;;;2.50;0.60;;;-0.40;99.90;;;;;;5082567;28;20049;-84
2022/01/06 07:11:54;;;;;;;2.57;0.73;;;-0.40;99.90;;;;;;5081269;28;20052;-82
2022/01/06 07:14:20;;;;;;;5.53;1.13;;;-0.40;99.90;;;;;;5079282;28;20063;-79
2022/01/06 07:16:47;;;;;;;3.63;1.90;;;-0.40;99.90;;;;;;5083518;28;20049;-81
2022/01/06 07:19:14;;;;;;;1.17;1.10;;;-0.50;99.90;;;;;;5081712;28;20052;-82
2022/01/06 07:21:42;;;;;;;0.87;0.30;;;-0.50;99.90;;;;;;5084129;28;20044;-81
2022/01/06 07:24:10;;;;;;;0.30;0.30;;;-0.40;99.90;;;;;;5083069;28;20062;-87
2022/01/06 07:26:38;;;;;;;0.60;0.60;;;-0.40;99.90;;;;;;5082438;28;20037;-82
2022/01/06 07:29:06;;;;;;;2.57;0.83;;;-0.40;99.90;;;;;;5081438;28;20110;-81
2022/01/06 07:31:35;;;;;;;0.90;0.90;;;-0.30;99.90;;;;;;5081770;28;20048;-83
2022/01/06 07:34:02;;;;;;;6.20;1.83;;;-0.30;99.90;;;;;;5078439;28;20041;-81
2022/01/06 07:36:29;;;;;;;0.70;0.40;;;-0.20;99.90;;;;;;5077571;28;20101;-77
2022/01/06 07:38:55;;;;;;;2.73;0.70;;;-0.20;99.90;;;;;;5076463;28;20554;-77
2022/01/06 07:41:22;;;;;;;0.43;0.43;;;-0.30;99.90;;;;;;5076068;28;20044;-77
2022/01/06 07:43:51;;;;;;;1.03;0.90;;;-0.20;99.90;;;;;;5074799;28;20444;-76
2022/01/06 07:46:19;;;;;;;3.10;1.33;;;-0.20;99.90;;;;;;5073689;28;20059;-75
2022/01/06 07:48:55;;;;;;;0.77;0.73;;;-0.20;99.90;;;;;;5075253;28;20048;-78
2022/01/06 07:51:22;;;;;;;0.87;0.83;;;-0.10;99.90;;;;;;5076219;28;20087;-79
2022/01/06 07:53:49;;;;;;;0.47;0.47;;;0.00;99.90;;;;;;5075850;28;20036;-76
2022/01/06 07:56:16;;;;;;;0.73;0.70;;;0.10;99.90;;;;;;5075694;28;20048;-78
2022/01/06 07:58:42;;;;;;;0.40;0.40;;;0.10;99.90;;;;;;5076406;28;20044;-78
2022/01/06 08:01:10;;;;;;;0.87;0.70;;;0.20;99.90;;;;;;5075578;28;20048;-76
2022/01/06 08:03:38;;;;;;;10.73;1.20;;;0.40;99.90;;;;;;5077690;28;20056;-79
2022/01/06 08:06:04;;;;;;;3.33;0.50;;;0.50;99.90;;;;;;5077439;28;20389;-79
2022/01/06 08:08:31;;;;;;;3.60;0.80;;;0.50;99.90;;;;;;5077085;28;20484;-79
2022/01/06 08:10:58;;;;;;;2.03;1.73;;;0.60;99.90;;;;;;5076997;28;20074;-80
2022/01/06 08:13:25;;;;;;;1.43;1.07;;;0.90;99.90;;;;;;5078917;28;20071;-79
2022/01/06 08:15:51;;;;;;;2.10;0.80;;;1.30;99.90;;;;;;5078632;28;20045;-79
2022/01/06 08:18:18;;;;;;;0.73;0.50;;;1.50;99.90;;;;;;5078677;28;20044;-78
2022/01/06 08:20:46;;;;;;;1.37;0.90;;;1.80;99.90;;;;;;5078244;28;20386;-79
2022/01/06 08:23:13;;;;;;;2.17;1.40;;;2.30;99.90;;;;;;5079463;28;20044;-78
2022/01/06 08:25:40;;;;;;;3.80;2.40;;;2.70;99.90;;;;;;5080604;28;20041;-79
2022/01/06 08:28:07;;;;;;;1.30;1.07;;;3.10;99.90;;;;;;5081210;28;20425;-80
2022/01/06 08:30:35;;;;;;;4.53;0.80;;;3.40;99.90;;;;;;5082411;28;20052;-79
2022/01/06 08:33:02;;;;;;;1.03;0.57;;;3.60;99.90;;;;;;5079739;28;20047;-80
2022/01/06 08:35:29;;;;;;;1.03;0.57;;;3.90;99.90;;;;;;5075288;28;20094;-78
2022/01/06 08:37:58;;;;;;;3.50;1.30;;;4.50;99.90;;;;;;5077861;28;20094;-77
2022/01/06 08:40:25;;;;;;;0.67;0.67;;;4.60;99.90;;;;;;5076733;28;20135;-77
2022/01/06 08:42:52;;;;;;;0.73;0.70;;;4.90;99.90;;;;;;5073969;28;20049;-80
2022/01/06 08:45:20;;;;;;;4.47;2.27;;;5.00;99.90;;;;;;5077854;28;20094;-83
2022/01/06 08:47:47;;;;;;;3.57;0.70;;;5.60;99.90;;;;;;5079619;28;20045;-82
2022/01/06 08:50:17;;;;;;;1.80;0.83;;;5.80;99.90;;;;;;5079326;28;20052;-77
2022/01/06 08:52:45;;;;;;;3.40;1.10;;;6.00;99.90;;;;;;5072881;28;20044;-77
2022/01/06 08:55:14;;;;;;;5.60;1.10;;;6.10;99.90;;;;;;5071470;28;20408;-76
2022/01/06 08:57:40;;;;;;;6.35;1.55;;;6.10;99.90;;;;;;5072505;28;20477;-76
2022/01/06 09:00:09;;;;;;;1.10;0.77;;;6.20;99.90;;;;;;5072103;28;20056;-74
2022/01/06 09:02:36;;;;;;;2.53;0.90;;;6.50;99.90;;;;;;5071998;28;20543;-74
2022/01/06 09:05:06;;;;;;;3.10;1.08;;;6.70;99.90;;;;;;5071465;28;20537;-79
2022/01/06 09:07:33;;;;;;;4.63;1.27;;;7.00;99.90;;;;;;5071955;28;20084;-75
2022/01/06 09:09:59;;;;;;;4.45;1.20;;;7.50;99.90;;;;;;5073235;28;20406;-79
2022/01/06 09:12:27;;;;;;;0.88;0.88;;;7.70;99.90;;;;;;5076295;28;20040;-81
2022/01/06 09:14:54;;;;;;;4.03;1.65;;;7.90;99.90;;;;;;5073623;28;20044;-84
2022/01/06 09:17:21;;;;;;;3.63;1.40;;;7.70;99.90;;;;;;5075760;28;20044;-84
2022/01/06 09:19:47;;;;;;;3.72;0.50;;;7.80;99.90;;;;;;5083856;28;20048;-79
2022/01/06 09:22:14;;;;;;;1.05;0.82;;;8.00;99.90;;;;;;5078695;28;20043;-83
2022/01/06 09:24:41;;;;;;;2.35;1.00;;;8.20;99.90;;;;;;5092260;28;20082;-84
2022/01/06 09:27:07;;;;;;;3.60;0.80;;;8.50;99.90;;;;;;5088105;28;20122;-77
2022/01/06 09:29:36;;;;;;;3.50;1.10;;;8.80;99.90;;;;;;5085396;28;20049;-76
2022/01/06 09:32:03;;;;;;;2.58;1.13;;;9.00;99.90;;;;;;5072344;28;20044;-78
2022/01/06 09:34:29;;;;;;;1.77;0.57;;;9.40;99.90;;;;;;5073707;28;20044;-78
2022/01/06 09:36:56;;;;;;;4.78;1.17;;;10.10;97.00;;;;;;5072720;28;20382;-76
2022/01/06 09:39:23;;;;;;;3.30;0.70;;;10.60;93.50;;;;;;5077276;28;20464;-78
2022/01/06 09:41:49;;;;;;;0.30;0.30;;;10.60;92.80;;;;;;5085659;28;20052;-80
2022/01/06 09:44:16;;;;;;;3.85;0.95;;;10.90;91.30;;;;;;5077633;28;20474;-81
2022/01/06 09:46:45;;;;;;;1.70;1.02;;;11.40;90.40;;;;;;5077521;28;20463;-82
2022/01/06 09:49:12;;;;;;;4.45;1.83;;;11.80;87.50;;;;;;5077899;28;20101;-83
2022/01/06 09:51:38;;;;;;;3.15;1.48;;;11.80;84.70;;;;;;5071784;28;20049;-75
2022/01/06 09:54:07;;;;;;;2.78;1.20;;;12.40;82.50;;;;;;5072254;28;20048;-74
2022/01/06 09:56:35;;;;;;;1.83;0.98;;;13.20;78.70;;;;;;5075448;28;20075;-74
2022/01/06 09:59:02;;;;;;;4.10;0.93;;;13.40;75.30;;;;;;5075633;28;20048;-78
2022/01/06 10:01:29;;;;;;;2.78;0.88;;;13.20;74.40;;;;;;5079767;28;20071;-82
2022/01/06 10:03:57;;;;;;;1.63;0.57;;;13.00;74.80;;;;;;5079874;28;20040;-82
2022/01/06 10:06:25;;;;;;;2.22;0.73;;;13.70;71.00;;;;;;5081293;28;20408;-78
2022/01/06 10:08:55;;;;;;;1.40;0.90;;;13.10;72.10;;;;;;5081807;28;20451;-80
2022/01/06 10:11:25;;;;;;;1.50;0.95;;;13.50;71.70;;;;;;5087881;28;20056;-80
2022/01/06 10:13:59;;;;;;;1.58;0.90;;;14.10;68.90;;;;;;5081176;28;20049;-79
2022/01/06 10:16:28;;;;;;;1.05;0.90;;;14.50;66.40;;;;;;5075575;28;20055;-73
2022/01/06 10:19:02;;;;;;;2.33;0.60;;;14.30;66.70;;;;;;5078854;28;20472;-80
2022/01/06 10:21:36;;;;;;;2.25;0.82;;;13.10;66.00;;;;;;5080467;28;20496;-79
2022/01/06 10:24:06;;;;;;;0.95;0.70;;;14.70;66.20;;;;;;5080571;28;20485;-81
2022/01/06 10:26:34;;;;;;;2.47;1.23;;;15.10;62.60;;;;;;5076820;28;20048;-79
2022/01/06 10:29:01;;;;;;;0.50;0.45;;;15.10;60.10;;;;;;5078462;28;20071;-78
2022/01/06 10:31:32;;;;;;;2.33;0.90;;;15.60;60.30;;;;;;5076953;28;20504;-78
2022/01/06 10:34:06;;;;;;;2.42;0.80;;;14.70;61.80;;;;;;5083129;28;20052;-84
2022/01/06 10:36:35;;;;;;;2.65;0.60;;;15.00;59.70;;;;;;5082420;28;20048;-79
2022/01/06 10:39:03;;;;;;;4.82;0.70;;;16.50;58.50;;;;;;5079381;28;20040;-84
2022/01/06 10:41:30;;;;;;;3.88;1.02;;;15.50;57.10;;;;;;5079513;28;20067;-83
2022/01/06 10:44:00;;;;;;;1.25;1.00;;;16.70;56.30;;;;;;5080796;28;20044;-79
2022/01/06 10:46:35;;;;;;;1.45;0.47;;;16.20;54.60;;;;;;5079774;28;20067;-80
2022/01/06 10:49:06;;;;;;;0.45;0.38;;;16.00;54.60;;;;;;5080517;28;20185;-80
2022/01/06 10:51:38;;;;;;;2.95;1.00;;;15.70;51.40;;;;;;5078705;28;20071;-82
2022/01/06 10:54:11;;;;;;;0.98;0.68;;;16.30;51.00;;;;;;5079761;28;20481;-84
2022/01/06 10:56:37;;;;;;;2.33;0.60;;;16.60;50.70;;;;;;5076144;28;20051;-80
2022/01/06 10:59:04;;;;;;;1.10;0.32;;;16.90;48.90;;;;;;5078227;28;20063;-79
2022/01/06 11:01:35;;;;;;;1.95;0.40;;;17.20;48.30;;;;;;5079130;28;20493;-79
2022/01/06 11:04:04;;;;;;;1.52;0.50;;;16.60;48.90;;;;;;5080873;28;20098;-79
2022/01/06 11:06:32;;;;;;;0.43;0.43;;;16.90;49.10;;;;;;5080864;28;20073;-78
2022/01/06 11:08:59;;;;;;;3.95;0.60;;;17.10;48.30;;;;;;5080731;28;20079;-79
2022/01/06 11:11:32;;;;;;;2.83;0.73;;;16.80;48.20;;;;;;5081113;28;20113;-80
2022/01/06 11:13:59;;;;;;;1.23;0.52;;;17.20;48.60;;;;;;5081417;28;20476;-79
2022/01/06 11:16:26;;;;;;;0.95;0.52;;;16.60;47.40;;;;;;5078298;28;20484;-78
2022/01/06 11:18:55;;;;;;;3.33;0.70;;;17.00;47.00;;;;;;5077432;28;20045;-80
2022/01/06 11:21:25;;;;;;;0.93;0.70;;;17.00;46.60;;;;;;5077408;28;20045;-79
2022/01/06 11:24:03;;;;;;;1.90;0.50;;;16.90;47.60;;;;;;5079534;28;20055;-79
2022/01/06 11:26:30;;;;;;;1.55;0.45;;;16.00;47.50;;;;;;5076827;28;20067;-79
2022/01/06 11:29:00;;;;;;;1.77;1.15;;;16.50;48.70;;;;;;5079208;28;20066;-80
2022/01/06 11:31:29;;;;;;;1.10;1.02;;;16.90;47.70;;;;;;5079015;28;20044;-79
2022/01/06 11:33:57;;;;;;;1.08;0.50;;;17.60;46.40;;;;;;5078930;28;20098;-79
2022/01/06 11:36:29;;;;;;;1.25;0.98;;;17.50;45.90;;;;;;5079834;28;20051;-80
2022/01/06 11:38:57;;;;;;;0.95;0.68;;;17.00;45.60;;;;;;5080370;28;20044;-80
2022/01/06 11:41:26;;;;;;;2.15;0.40;;;17.20;45.80;;;;;;5078910;28;20044;-79
2022/01/06 11:43:57;;;;;;;1.38;0.40;;;16.20;45.40;;;;;;5078221;28;20504;-78
2022/01/06 11:46:24;;;;;;;0.63;0.57;;;16.90;45.70;;;;;;5078526;28;20123;-79
2022/01/06 11:48:53;;;;;;;0.55;0.55;;;16.40;46.60;;;;;;5079887;28;20051;-79
2022/01/06 11:51:26;;;;;;;0.75;0.60;;;16.00;46.30;;;;;;5078933;28;20052;-79
2022/01/06 11:53:53;;;;;;;4.32;1.00;;;15.70;46.10;;;;;;5084266;28;20070;-79
2022/01/06 11:56:21;;;;;;;8.45;4.07;;;15.30;47.20;;;;;;5094811;28;20041;-79
2022/01/06 11:58:58;;;;;;;2.17;1.40;;;16.00;48.20;;;;;;5098564;28;20052;-83
2022/01/06 12:01:25;;;;;;;1.15;0.85;;;17.00;47.20;;;;;;5098875;28;20056;-81
2022/01/06 12:03:51;;;;;;;0.90;0.90;;;17.10;46.00;;;;;;5098667;28;20020;-80
2022/01/06 12:06:28;;;;;;;3.35;0.65;;;17.60;46.00;;;;;;5087827;28;20029;-86
2022/01/06 12:08:55;;;;;;;1.05;0.47;;;17.70;45.00;;;;;;5080689;28;20110;-76
2022/01/06 12:11:24;;;;;;;2.67;0.57;;;17.60;45.20;;;;;;5078875;28;20044;-78
2022/01/06 12:13:53;;;;;;;1.48;0.52;;;17.20;44.40;;;;;;5076444;28;20638;-77
2022/01/06 12:16:28;;;;;;;1.75;0.88;;;17.10;45.30;;;;;;5073677;28;20550;-79
2022/01/06 12:18:55;;;;;;;4.30;1.35;;;16.90;45.00;;;;;;5075622;28;20530;-79
2022/01/06 12:21:22;;;;;;;4.53;1.02;;;17.00;46.40;;;;;;5078688;28;20044;-78
2022/01/06 12:24:00;;;;;;;2.08;0.90;;;16.90;45.70;;;;;;5081079;28;20052;-82
2022/01/06 12:26:27;;;;;;;1.35;0.50;;;17.40;45.40;;;;;;5081904;28;20049;-80
2022/01/06 12:28:54;;;;;;;3.88;2.35;;;16.40;44.90;;;;;;5079971;28;20044;-80
2022/01/06 12:31:23;;;;;;;5.10;1.38;;;17.40;45.40;;;;;;5082027;28;20045;-78
2022/01/06 12:33:50;;;;;;;2.33;0.90;;;17.10;45.70;;;;;;5079069;28;20040;-80
2022/01/06 12:36:18;;;;;;;1.85;0.50;;;15.80;46.80;;;;;;5077338;28;20082;-80
2022/01/06 12:38:45;;;;;;;3.33;0.77;;;16.10;47.20;;;;;;5081365;28;20044;-81
2022/01/06 12:41:16;;;;;;;0.70;0.52;;;16.60;47.10;;;;;;5086389;28;20075;-77
2022/01/06 12:43:43;;;;;;;25.80;12.00;;;16.90;46.00;;;;;;5083460;28;20489;-81
2022/01/06 12:46:13;;;;;;;4.95;1.60;;;16.60;46.50;;;;;;5082027;28;20059;-83
2022/01/06 12:48:42;;;;;;;2.17;1.00;;;16.50;46.70;;;;;;5091788;28;20052;-83
2022/01/06 12:51:12;;;;;;;6.43;1.05;;;17.00;46.30;;;;;;5087041;28;20121;-83
2022/01/06 12:53:41;;;;;;;1.83;1.45;;;16.90;46.50;;;;;;5077312;28;20045;-77
2022/01/06 12:56:08;;;;;;;2.30;0.60;;;17.10;46.20;;;;;;5076380;28;20040;-81
2022/01/06 12:58:39;;;;;;;0.52;0.45;;;17.50;45.60;;;;;;5073160;28;20492;-75
2022/01/06 13:01:07;;;;;;;1.23;0.57;;;16.20;45.60;;;;;;5073880;28;20048;-81